Terminal Aerodrome Forecast
Issued by NWS

Home | Current Version | Previous Version | Text Only | Print | Product List | Glossary On
Versions: 1 2 3 4 5 6 7 8 9 10 11 12 13 14 15 16 17
000
FTUS43 KDVN 271700
TAFBRL
TAF
KBRL 271720Z 2718/2818 01012KT P6SM FEW035
     FM280000 04005KT P6SM SKC
     FM280400 09004KT P6SM BKN200
     FM281500 13006KT P6SM SCT200=

USA.gov is the U.S. government's official web portal to all federal, state and local government web resources and services.